createdAt,value
2019-06-10T00:00:23.919Z,98179.00
2019-06-10T00:05:31.320Z,98175.00
2019-06-10T00:10:42.259Z,98172.00
2019-06-10T00:15:51.514Z,98167.00
2019-06-10T00:21:01.949Z,98168.00
2019-06-10T00:26:12.184Z,98157.00
2019-06-10T00:31:20.612Z,98153.00
2019-06-10T00:36:30.747Z,98140.00
2019-06-10T00:41:37.638Z,98135.00
2019-06-10T00:46:46.434Z,98138.00
2019-06-10T00:51:54.874Z,98123.00
2019-06-10T00:57:04.094Z,98113.00
2019-06-10T01:02:14.309Z,98112.00
2019-06-10T01:07:21.935Z,98107.00
2019-06-10T01:12:31.611Z,98105.00
2019-06-10T01:17:41.728Z,98107.00
2019-06-10T01:22:51.248Z,98108.00
2019-06-10T01:28:00.596Z,98093.00
2019-06-10T01:33:08.696Z,98086.00
2019-06-10T01:38:18.370Z,98080.00
2019-06-10T01:43:27.181Z,98076.00
2019-06-10T01:48:44.133Z,98073.00
2019-06-10T01:53:44.763Z,98059.00
2019-06-10T01:58:52.031Z,98055.00
2019-06-10T02:04:00.892Z,98045.00
2019-06-10T02:09:13.349Z,98048.00
2019-06-10T02:14:20.352Z,98044.00
2019-06-10T02:19:28.238Z,98042.00
2019-06-10T02:24:36.260Z,98024.00
2019-06-10T02:29:43.977Z,98017.00
2019-06-10T02:35:03.520Z,98032.00
2019-06-10T02:40:04.090Z,98022.00
2019-06-10T02:45:17.361Z,98001.00
2019-06-10T02:50:32.119Z,98004.00
2019-06-10T02:55:35.111Z,98013.00
2019-06-10T03:00:48.615Z,98010.00
2019-06-10T03:05:53.683Z,98016.00
2019-06-10T03:11:03.872Z,98023.00
2019-06-10T03:16:17.795Z,98009.00
2019-06-10T03:21:26.808Z,98006.00
2019-06-10T03:26:44.471Z,98004.00
2019-06-10T03:31:55.144Z,98008.00
2019-06-10T03:37:02.460Z,97996.00
2019-06-10T03:42:12.578Z,97998.00
2019-06-10T03:47:21.809Z,97995.00
2019-06-10T03:52:32.464Z,98001.00
2019-06-10T03:57:42.105Z,97994.00
2019-06-10T04:02:48.611Z,98002.00
2019-06-10T04:07:55.936Z,97994.00
2019-06-10T04:13:03.326Z,97999.00
2019-06-10T04:18:14.246Z,97989.00
2019-06-10T04:23:23.818Z,97986.00
2019-06-10T04:28:33.484Z,97983.00
2019-06-10T04:33:58.517Z,97987.00
2019-06-10T04:39:07.951Z,97977.00
2019-06-10T04:44:15.234Z,97971.00
2019-06-10T04:49:28.644Z,97964.00
2019-06-10T04:54:56.242Z,97962.00
2019-06-10T05:00:11.291Z,97960.00
2019-06-10T05:05:15.782Z,97960.00
2019-06-10T05:10:26.437Z,97962.00
2019-06-10T05:15:35.713Z,97958.00
2019-06-10T05:21:04.753Z,97953.00
2019-06-10T05:26:13.391Z,97951.00
2019-06-10T05:36:28.653Z,97961.00
2019-06-10T05:41:39.496Z,97965.00
2019-06-10T05:47:07.093Z,97960.00
2019-06-10T05:52:14.583Z,97965.00
2019-06-10T05:57:25.771Z,97945.00
2019-06-10T06:02:35.408Z,97943.00
2019-06-10T06:07:42.648Z,97930.00
2019-06-10T06:12:52.672Z,97934.00
2019-06-10T06:18:09.420Z,97941.00
2019-06-10T06:23:12.253Z,97942.00
2019-06-10T06:28:19.829Z,97934.00
2019-06-10T06:33:29.365Z,97943.00
2019-06-10T06:38:38.380Z,97947.00
2019-06-10T06:43:45.945Z,97943.00
2019-06-10T06:48:53.476Z,97950.00
2019-06-10T06:54:03.100Z,97944.00
2019-06-10T06:59:09.936Z,97945.00
2019-06-10T07:04:19.287Z,97943.00
2019-06-10T07:09:33.076Z,97950.00
2019-06-10T07:14:44.941Z,97954.00
2019-06-10T07:19:52.986Z,97956.00
2019-06-10T07:25:06.320Z,97959.00
2019-06-10T07:30:15.207Z,97950.00
2019-06-10T07:35:22.781Z,97944.00
2019-06-10T07:40:33.399Z,97949.00
2019-06-10T07:45:45.452Z,97939.00
2019-06-10T07:50:53.215Z,97936.00
2019-06-10T07:56:02.928Z,97936.00
2019-06-10T08:01:27.644Z,97937.00
2019-06-10T08:06:36.430Z,97933.00
2019-06-10T08:11:48.289Z,97931.00
2019-06-10T08:16:54.131Z,97926.00
2019-06-10T08:22:03.050Z,97930.00
2019-06-10T08:27:12.067Z,97929.00
2019-06-10T08:32:20.243Z,97948.00
2019-06-10T08:37:28.370Z,97942.00
2019-06-10T08:42:36.579Z,97946.00
2019-06-10T08:47:46.888Z,97945.00
2019-06-10T08:53:09.138Z,97949.00
2019-06-10T08:58:02.940Z,97943.00
2019-06-10T09:03:12.456Z,97952.00
2019-06-10T09:08:20.370Z,97956.00
2019-06-10T09:13:28.073Z,97957.00
2019-06-10T09:18:36.308Z,97966.00
2019-06-10T09:23:49.547Z,97970.00
2019-06-10T09:28:56.471Z,97974.00
2019-06-10T09:34:04.435Z,97966.00
2019-06-10T09:39:13.133Z,97966.00
2019-06-10T09:44:22.899Z,97969.00
2019-06-10T09:49:41.321Z,97968.00
2019-06-10T09:54:56.284Z,97965.00
2019-06-10T09:59:59.210Z,97965.00
2019-06-10T10:05:10.989Z,97964.00
2019-06-10T10:10:24.008Z,97964.00
2019-06-10T10:15:34.598Z,97972.00
2019-06-10T10:20:44.865Z,97976.00
2019-06-10T10:25:56.250Z,97973.00
2019-06-10T10:31:03.563Z,97973.00
2019-06-10T10:36:13.253Z,97970.00
2019-06-10T10:41:23.207Z,97964.00
2019-06-10T10:46:32.626Z,97962.00
2019-06-10T10:51:41.011Z,97954.00
2019-06-10T10:56:49.621Z,97953.00
2019-06-10T11:01:58.482Z,97937.00
2019-06-10T11:07:05.878Z,97914.00
2019-06-10T11:12:15.202Z,97897.00
2019-06-10T11:17:23.470Z,97893.00
2019-06-10T11:22:32.890Z,97894.00
2019-06-10T11:27:39.981Z,97875.00
2019-06-10T11:32:47.958Z,97868.00
2019-06-10T11:37:56.691Z,97851.00
2019-06-10T11:43:04.705Z,97843.00
2019-06-10T11:48:12.946Z,97840.00
2019-06-10T11:53:22.914Z,97850.00
2019-06-10T11:58:33.338Z,97852.00
2019-06-10T12:03:43.239Z,97845.00
2019-06-10T12:08:54.129Z,97826.00
2019-06-10T12:14:03.880Z,97829.00
2019-06-10T12:19:12.546Z,97834.00
2019-06-10T12:24:22.888Z,97824.00
2019-06-10T12:29:30.577Z,97824.00
2019-06-10T12:34:38.544Z,97811.00
2019-06-10T12:40:12.879Z,97799.00
2019-06-10T12:45:23.353Z,97779.00
2019-06-10T12:50:31.100Z,97778.00
2019-06-10T12:55:44.463Z,97770.00
2019-06-10T13:00:49.525Z,97779.00
2019-06-10T13:06:04.697Z,97778.00
2019-06-10T13:11:12.546Z,97775.00
2019-06-10T13:16:19.094Z,97776.00
2019-06-10T13:21:26.633Z,97767.00
2019-06-10T13:26:36.138Z,97751.00
2019-06-10T13:31:44.851Z,97732.00
2019-06-10T13:36:53.157Z,97732.00
2019-06-10T13:42:06.871Z,97728.00
2019-06-10T13:47:14.901Z,97727.00
2019-06-10T13:52:24.552Z,97709.00
2019-06-10T13:57:33.263Z,97694.00
2019-06-10T14:02:42.967Z,97686.00
2019-06-10T14:07:52.105Z,97690.00
2019-06-10T14:12:59.314Z,97688.00
2019-06-10T14:18:08.921Z,97677.00
2019-06-10T14:23:17.659Z,97678.00
2019-06-10T14:28:40.038Z,97679.00
2019-06-10T14:33:35.411Z,97666.00
2019-06-10T14:38:43.113Z,97675.00
2019-06-10T14:43:52.964Z,97676.00
2019-06-10T14:48:59.607Z,97683.00
2019-06-10T14:54:09.355Z,97675.00
2019-06-10T14:59:18.832Z,97668.00
2019-06-10T15:04:26.924Z,97660.00
2019-06-10T15:09:35.198Z,97643.00
2019-06-10T15:14:43.428Z,97651.00
2019-06-10T15:19:53.038Z,97629.00
2019-06-10T15:25:03.220Z,97628.00
2019-06-10T15:30:20.645Z,97628.00
2019-06-10T15:35:24.327Z,97608.00
2019-06-10T15:40:32.530Z,97607.00
2019-06-10T15:45:40.020Z,97605.00
2019-06-10T15:50:48.365Z,97597.00
2019-06-10T15:56:13.081Z,97596.00
2019-06-10T16:01:07.261Z,97588.00
2019-06-10T16:06:15.986Z,97598.00
2019-06-10T16:11:44.316Z,97575.00
2019-06-10T16:16:52.583Z,97573.00
2019-06-10T16:22:03.259Z,97586.00
2019-06-10T16:27:12.628Z,97587.00
2019-06-10T16:32:23.209Z,97578.00
2019-06-10T16:37:32.669Z,97576.00
2019-06-10T16:42:39.677Z,97576.00
2019-06-10T16:47:47.078Z,97590.00
2019-06-10T16:52:55.846Z,97595.00
2019-06-10T16:58:08.271Z,97614.00
2019-06-10T17:03:28.679Z,97625.00
2019-06-10T17:08:36.655Z,97635.00
2019-06-10T17:13:44.890Z,97649.00
2019-06-10T17:18:52.201Z,97647.00
2019-06-10T17:23:59.686Z,97646.00
2019-06-10T17:29:07.826Z,97631.00
2019-06-10T17:34:15.172Z,97596.00
2019-06-10T17:39:34.516Z,97576.00
2019-06-10T17:44:42.862Z,97590.00
2019-06-10T17:49:50.275Z,97598.00
2019-06-10T17:54:58.749Z,97591.00
2019-06-10T18:00:14.778Z,97585.00
2019-06-10T18:05:22.519Z,97595.00
2019-06-10T18:10:33.198Z,97589.00
2019-06-10T18:15:41.559Z,97584.00
2019-06-10T18:20:49.375Z,97584.00
2019-06-10T18:25:58.730Z,97582.00
2019-06-10T18:31:08.124Z,97550.00
2019-06-10T18:36:36.281Z,97563.00
2019-06-10T18:41:46.025Z,97577.00
2019-06-10T18:46:53.695Z,97559.00
2019-06-10T18:52:01.886Z,97542.00
2019-06-10T18:57:09.190Z,97554.00
2019-06-10T19:02:17.939Z,97584.00
2019-06-10T19:07:26.160Z,97595.00
2019-06-10T19:12:37.031Z,97644.00
2019-06-10T19:17:53.717Z,97654.00
2019-06-10T19:23:02.689Z,97625.00
2019-06-10T19:28:12.200Z,97614.00
2019-06-10T19:33:23.633Z,97629.00
2019-06-10T19:38:38.425Z,97605.00
2019-06-10T19:43:46.068Z,97573.00
2019-06-10T19:48:59.468Z,97602.00
2019-06-10T19:54:03.521Z,97582.00
2019-06-10T19:59:09.784Z,97575.00
2019-06-10T20:04:18.145Z,97607.00
2019-06-10T20:09:27.141Z,97621.00
2019-06-10T20:14:34.904Z,97655.00
2019-06-10T20:19:44.407Z,97661.00
2019-06-10T20:24:52.335Z,97625.00
2019-06-10T20:30:07.848Z,97610.00
2019-06-10T20:35:08.179Z,97597.00
2019-06-10T20:40:16.805Z,97586.00
2019-06-10T20:45:24.618Z,97530.00
2019-06-10T20:50:32.562Z,97546.00
2019-06-10T20:55:49.056Z,97576.00
2019-06-10T21:00:53.899Z,97552.00
2019-06-10T21:05:59.691Z,97567.00
2019-06-10T21:11:06.592Z,97574.00
2019-06-10T21:16:15.664Z,97577.00
2019-06-10T21:21:23.371Z,97570.00
2019-06-10T21:26:32.714Z,97569.00
2019-06-10T21:31:41.729Z,97553.00
2019-06-10T21:36:49.632Z,97554.00
2019-06-10T21:41:57.285Z,97538.00
2019-06-10T21:47:05.915Z,97537.00
2019-06-10T21:52:13.849Z,97566.00
2019-06-10T21:57:22.081Z,97554.00
2019-06-10T22:02:29.042Z,97548.00
2019-06-10T22:07:35.846Z,97522.00
2019-06-10T22:12:43.913Z,97528.00
2019-06-10T22:17:53.338Z,97546.00
2019-06-10T22:23:02.996Z,97557.00
2019-06-10T22:28:10.177Z,97580.00
2019-06-10T22:33:17.783Z,97597.00
2019-06-10T22:38:24.608Z,97602.00
2019-06-10T22:43:33.135Z,97577.00
2019-06-10T23:09:26.947Z,97517.00
2019-06-10T23:14:34.285Z,97526.00
2019-06-10T23:19:42.898Z,97525.00
2019-06-10T23:24:51.335Z,97532.00
2019-06-10T23:30:00.306Z,97538.00
2019-06-10T23:35:08.842Z,97547.00
2019-06-10T23:40:16.949Z,97542.00
2019-06-10T23:45:25.060Z,97553.00
2019-06-10T23:50:33.020Z,97553.00
2019-06-10T23:55:42.530Z,97558.00
